createdAt,value
2022-11-01T00:00:36.278Z,92770.44
2022-11-01T00:03:08.677Z,92772.00
2022-11-01T00:05:41.699Z,92772.78
2022-11-01T00:08:14.072Z,92771.25
2022-11-01T00:10:46.376Z,92768.09
2022-11-01T00:13:18.698Z,92771.78
2022-11-01T00:15:51.010Z,92767.34
2022-11-01T00:18:23.512Z,92765.81
2022-11-01T00:20:56.501Z,92770.72
2022-11-01T00:23:28.841Z,92770.22
2022-11-01T00:26:01.623Z,92769.44
2022-11-01T00:28:34.741Z,92768.22
2022-11-01T00:31:10.244Z,92767.44
2022-11-01T00:33:45.225Z,92767.38
2022-11-01T00:36:18.284Z,92760.34
2022-11-01T00:38:51.284Z,92761.72
2022-11-01T00:41:23.616Z,92765.94
2022-11-01T00:43:56.011Z,92761.00
2022-11-01T00:46:28.527Z,92761.00
2022-11-01T00:49:00.902Z,92761.78
2022-11-01T00:51:33.926Z,92761.78
2022-11-01T00:54:06.765Z,92756.06
2022-11-01T00:56:39.157Z,92751.13
2022-11-01T00:59:11.490Z,92755.06
2022-11-01T01:01:43.952Z,92752.75
2022-11-01T01:04:16.605Z,92758.22
2022-11-01T01:06:49.647Z,92754.84
2022-11-01T01:09:22.133Z,92742.38
2022-11-01T01:11:54.471Z,92748.13
2022-11-01T01:14:31.417Z,92744.47
2022-11-01T01:17:04.992Z,92751.72
2022-11-01T01:19:37.347Z,92752.28
2022-11-01T01:22:10.444Z,92760.13
2022-11-01T01:24:45.066Z,92751.53
2022-11-01T01:27:17.884Z,92751.25
2022-11-01T01:29:51.510Z,92759.59
2022-11-01T01:32:24.167Z,92752.06
2022-11-01T01:34:56.532Z,92754.94
2022-11-01T01:37:29.577Z,92752.06
2022-11-01T01:40:01.959Z,92758.81
2022-11-01T01:42:36.461Z,92757.06
2022-11-01T01:45:25.735Z,92756.03
2022-11-01T01:48:05.857Z,92760.72
2022-11-01T01:50:41.976Z,92753.72
2022-11-01T01:53:20.056Z,92761.00
2022-11-01T01:55:58.833Z,92757.63
2022-11-01T01:58:34.173Z,92759.00
2022-11-01T02:01:06.838Z,92752.50
2022-11-01T02:03:40.682Z,92765.78
2022-11-01T02:06:16.265Z,92762.38
2022-11-01T02:08:52.909Z,92762.38
2022-11-01T02:11:25.288Z,92761.63
2022-11-01T02:13:58.228Z,92750.44
2022-11-01T02:16:51.665Z,92757.50
2022-11-01T02:20:02.288Z,92764.75
2022-11-01T02:22:50.125Z,92762.94
2022-11-01T02:25:43.790Z,92762.94
2022-11-01T02:28:32.873Z,92765.56
2022-11-01T02:31:25.325Z,92761.69
2022-11-01T02:34:01.668Z,92765.59
2022-11-01T02:36:40.701Z,92770.78
2022-11-01T02:39:19.811Z,92762.22
2022-11-01T02:42:01.943Z,92766.13
2022-11-01T02:44:38.394Z,92768.19
2022-11-01T02:47:11.639Z,92772.09
2022-11-01T02:49:47.198Z,92774.72
2022-11-01T02:52:23.153Z,92782.50
2022-11-01T02:54:57.968Z,92789.00
2022-11-01T02:57:35.457Z,92785.91
2022-11-01T03:00:20.331Z,92786.16
2022-11-01T03:02:58.050Z,92782.78
2022-11-01T03:05:40.664Z,92782.78
2022-11-01T03:08:16.718Z,92789.03
2022-11-01T03:10:58.032Z,92793.22
2022-11-01T03:13:52.275Z,92788.03
2022-11-01T03:16:30.612Z,92793.97
2022-11-01T03:19:24.794Z,92792.97
2022-11-01T03:22:03.104Z,92796.88
2022-11-01T03:24:43.017Z,92794.25
2022-11-01T03:27:21.488Z,92793.47
2022-11-01T03:29:58.441Z,92795.81
2022-11-01T03:32:38.517Z,92784.91
2022-11-01T03:35:16.709Z,92790.88
2022-11-01T03:37:52.516Z,92792.72
2022-11-01T03:40:28.365Z,92789.84
2022-11-01T03:43:04.783Z,92790.63
2022-11-01T03:45:39.569Z,92790.38
2022-11-01T03:48:11.950Z,92787.53
2022-11-01T03:50:48.052Z,92782.84
2022-11-01T03:53:21.669Z,92783.34
2022-11-01T03:55:54.042Z,92794.28
2022-11-01T03:58:40.779Z,92795.34
2022-11-01T04:01:14.818Z,92799.00
2022-11-01T04:03:47.203Z,92788.59
2022-11-01T04:06:19.558Z,92791.19
2022-11-01T04:08:52.821Z,92788.84
2022-11-01T04:11:25.113Z,92789.41
2022-11-01T04:14:17.460Z,92790.16
2022-11-01T04:17:07.876Z,92784.44
2022-11-01T04:19:58.453Z,92787.81
2022-11-01T04:22:30.845Z,92784.47
2022-11-01T04:25:04.271Z,92779.25
2022-11-01T04:27:36.585Z,92780.56
2022-11-01T04:30:09.564Z,92784.19
2022-11-01T04:32:42.899Z,92781.84
2022-11-01T04:35:15.315Z,92776.09
2022-11-01T04:37:47.798Z,92779.50
2022-11-01T04:40:20.837Z,92779.75
2022-11-01T04:42:53.235Z,92771.22
2022-11-01T04:45:25.652Z,92781.31
2022-11-01T04:48:02.577Z,92775.63
2022-11-01T04:50:35.571Z,92779.25
2022-11-01T04:53:08.333Z,92786.00
2022-11-01T04:55:41.382Z,92785.50
2022-11-01T04:58:14.008Z,92793.81
2022-11-01T05:00:46.350Z,92799.78
2022-11-01T05:03:18.696Z,92791.22
2022-11-01T05:05:51.037Z,92791.47
2022-11-01T05:08:23.396Z,92795.91
2022-11-01T05:10:56.586Z,92793.31
2022-11-01T05:13:28.985Z,92798.50
2022-11-01T05:18:54.953Z,92812.53
2022-11-01T05:21:27.260Z,92810.72
2022-11-01T05:23:59.681Z,92810.44
2022-11-01T05:26:33.621Z,92819.00
2022-11-01T05:29:13.297Z,92824.50
2022-11-01T05:31:56.441Z,92821.09
2022-11-01T05:34:28.799Z,92821.59
2022-11-01T05:37:01.252Z,92831.50
2022-11-01T05:39:33.698Z,92827.34
2022-11-01T05:42:06.689Z,92833.03
2022-11-01T05:44:39.045Z,92830.19
2022-11-01T05:47:16.090Z,92838.50
2022-11-01T05:49:49.547Z,92836.69
2022-11-01T05:52:21.922Z,92840.59
2022-11-01T05:54:54.280Z,92846.81
2022-11-01T05:57:32.322Z,92846.03
2022-11-01T06:00:07.547Z,92846.03
2022-11-01T06:02:45.665Z,92848.63
2022-11-01T06:05:17.937Z,92856.94
2022-11-01T06:07:50.293Z,92856.94
2022-11-01T06:10:22.773Z,92859.56
2022-11-01T06:12:55.841Z,92857.22
2022-11-01T06:15:28.107Z,92854.34
2022-11-01T06:18:00.903Z,92858.47
2022-11-01T06:20:34.072Z,92858.47
2022-11-01T06:23:10.710Z,92861.81
2022-11-01T06:25:43.089Z,92865.47
2022-11-01T06:28:16.233Z,92866.22
2022-11-01T06:30:48.548Z,92864.09
2022-11-01T06:33:20.870Z,92862.78
2022-11-01T06:35:53.260Z,92859.34
2022-11-01T06:38:25.627Z,92860.88
2022-11-01T06:40:58.189Z,92859.78
2022-11-01T06:43:31.221Z,92858.44
2022-11-01T06:46:03.698Z,92868.25
2022-11-01T06:48:36.009Z,92861.91
2022-11-01T06:51:08.408Z,92865.72
2022-11-01T06:53:40.769Z,92867.66
2022-11-01T06:56:13.057Z,92863.88
2022-11-01T06:58:48.765Z,92863.47
2022-11-01T07:01:21.997Z,92860.69
2022-11-01T07:03:54.720Z,92864.41
2022-11-01T07:06:30.072Z,92858.97
2022-11-01T07:09:02.421Z,92863.94
2022-11-01T07:11:34.789Z,92863.50
2022-11-01T07:14:08.713Z,92866.09
2022-11-01T07:16:41.021Z,92863.50
2022-11-01T07:19:13.320Z,92861.72
2022-11-01T07:21:45.689Z,92860.66
2022-11-01T07:24:18.030Z,92869.81
2022-11-01T07:26:50.408Z,92863.44
2022-11-01T07:29:23.381Z,92861.84
2022-11-01T07:31:55.857Z,92865.66
2022-11-01T07:34:28.170Z,92870.31
2022-11-01T07:37:00.524Z,92862.63
2022-11-01T07:39:32.845Z,92855.13
2022-11-01T07:42:05.264Z,92860.25
2022-11-01T07:44:38.621Z,92857.66
2022-11-01T07:47:10.917Z,92862.88
2022-11-01T07:49:43.278Z,92857.59
2022-11-01T07:52:16.244Z,92859.69
2022-11-01T07:54:48.548Z,92861.63
2022-11-01T07:57:20.845Z,92862.97
2022-11-01T07:59:53.908Z,92846.66
2022-11-01T08:02:26.324Z,92852.63
2022-11-01T08:04:58.757Z,92860.72
2022-11-01T08:07:31.056Z,92856.59
2022-11-01T08:10:04.138Z,92846.06
2022-11-01T08:12:36.936Z,92859.09
2022-11-01T08:15:10.258Z,92856.28
2022-11-01T08:17:42.604Z,92852.22
2022-11-01T08:20:15.045Z,92858.81
2022-11-01T08:22:47.387Z,92850.97
2022-11-01T08:25:20.550Z,92843.91
2022-11-01T08:27:52.907Z,92851.09
2022-11-01T08:30:26.209Z,92846.59
2022-11-01T08:32:59.360Z,92841.00
2022-11-01T08:35:33.205Z,92847.19
2022-11-01T08:38:05.577Z,92835.25
2022-11-01T08:40:39.606Z,92838.16
2022-11-01T08:43:11.994Z,92846.00
2022-11-01T08:45:45.106Z,92836.88
2022-11-01T08:48:17.466Z,92842.97
2022-11-01T08:50:49.837Z,92829.63
2022-11-01T08:53:24.149Z,92834.84
2022-11-01T08:55:57.360Z,92841.03
2022-11-01T08:58:29.712Z,92838.47
2022-11-01T09:01:02.816Z,92838.25
2022-11-01T09:03:35.145Z,92837.06
2022-11-01T09:06:07.633Z,92833.63
2022-11-01T09:08:40.017Z,92838.59
2022-11-01T09:11:12.358Z,92826.50
2022-11-01T09:13:44.662Z,92830.13
2022-11-01T09:16:17.686Z,92830.22
2022-11-01T09:18:50.060Z,92833.31
2022-11-01T09:21:24.031Z,92821.78
2022-11-01T09:23:58.442Z,92826.34
2022-11-01T09:26:30.808Z,92818.41
2022-11-01T09:29:03.365Z,92819.75
2022-11-01T09:31:36.423Z,92814.28
2022-11-01T09:34:11.332Z,92819.41
2022-11-01T09:36:43.699Z,92811.28
2022-11-01T09:39:17.248Z,92813.19
2022-11-01T09:41:53.136Z,92805.22
2022-11-01T09:44:28.304Z,92808.75
2022-11-01T09:47:05.001Z,92802.78
2022-11-01T09:49:41.390Z,92800.16
2022-11-01T09:52:19.607Z,92795.38
2022-11-01T09:54:52.580Z,92791.66
2022-11-01T09:57:34.356Z,92798.94
2022-11-01T10:00:12.900Z,92791.69
2022-11-01T10:03:25.194Z,92794.53
2022-11-01T10:06:03.922Z,92795.13
2022-11-01T10:08:50.044Z,92789.97
2022-11-01T10:11:47.654Z,92787.34
2022-11-01T10:14:37.424Z,92786.66
2022-11-01T10:17:13.873Z,92784.16
2022-11-01T10:19:48.870Z,92778.41
2022-11-01T10:22:28.655Z,92779.56
2022-11-01T10:25:04.386Z,92777.78
2022-11-01T10:27:45.529Z,92774.94
2022-11-01T10:30:18.263Z,92775.13
2022-11-01T10:32:57.404Z,92766.16
2022-11-01T10:35:35.096Z,92760.13
2022-11-01T10:38:30.211Z,92766.41
2022-11-01T10:41:20.114Z,92754.84
2022-11-01T10:43:55.390Z,92754.75
2022-11-01T10:46:34.004Z,92761.34
2022-11-01T10:49:17.699Z,92757.41
2022-11-01T10:51:54.101Z,92750.03
2022-11-01T10:54:30.530Z,92750.25
2022-11-01T10:57:08.411Z,92741.38
2022-11-01T10:59:43.232Z,92744.19
2022-11-01T11:02:22.469Z,92744.25
2022-11-01T11:04:55.670Z,92738.13
2022-11-01T11:07:31.206Z,92740.16
2022-11-01T11:10:04.113Z,92735.72
2022-11-01T11:12:36.644Z,92737.63
2022-11-01T11:15:17.966Z,92737.78
2022-11-01T11:17:55.877Z,92738.41
2022-11-01T11:20:29.804Z,92734.84
2022-11-01T11:23:03.501Z,92734.44
2022-11-01T11:25:36.711Z,92731.13
2022-11-01T11:28:20.682Z,92729.34
2022-11-01T11:30:53.443Z,92737.47
2022-11-01T11:33:25.923Z,92726.41
2022-11-01T11:35:59.534Z,92726.84
2022-11-01T11:38:44.597Z,92724.56
2022-11-01T11:41:27.755Z,92721.22
2022-11-01T11:44:00.417Z,92727.78
2022-11-01T11:46:32.850Z,92720.75
2022-11-01T11:49:06.505Z,92717.63
2022-11-01T11:51:39.998Z,92719.28
2022-11-01T11:54:21.210Z,92718.19
2022-11-01T11:57:10.129Z,92719.09
2022-11-01T11:59:43.901Z,92712.34
2022-11-01T12:02:22.504Z,92710.81
2022-11-01T12:04:58.036Z,92709.97
2022-11-01T12:07:32.376Z,92706.50
2022-11-01T12:10:26.709Z,92711.53
2022-11-01T12:13:00.288Z,92706.56
2022-11-01T12:15:38.298Z,92702.75
2022-11-01T12:18:18.015Z,92695.09
2022-11-01T12:20:51.693Z,92697.81
2022-11-01T12:23:28.457Z,92694.75
2022-11-01T12:26:04.976Z,92689.97
2022-11-01T12:28:42.773Z,92692.22
2022-11-01T12:31:17.676Z,92687.44
2022-11-01T12:33:54.049Z,92682.50
2022-11-01T12:36:33.943Z,92680.63
2022-11-01T12:39:18.884Z,92683.66
2022-11-01T12:41:58.674Z,92684.44
2022-11-01T12:44:34.865Z,92673.22
2022-11-01T12:47:14.582Z,92687.00
2022-11-01T12:49:51.980Z,92686.38
2022-11-01T12:52:30.644Z,92687.88
2022-11-01T12:55:08.808Z,92686.38
2022-11-01T12:57:41.945Z,92686.09
2022-11-01T13:00:16.065Z,92688.75
2022-11-01T13:03:03.276Z,92686.69
2022-11-01T13:05:49.259Z,92689.50
2022-11-01T13:08:30.557Z,92680.13
2022-11-01T13:11:13.418Z,92665.66
2022-11-01T13:13:52.095Z,92679.78
2022-11-01T13:16:30.637Z,92675.94
2022-11-01T13:19:10.344Z,92677.13
2022-11-01T13:21:50.265Z,92679.03
2022-11-01T13:24:29.032Z,92689.63
2022-11-01T13:27:06.845Z,92676.63
2022-11-01T13:29:48.857Z,92679.53
2022-11-01T13:32:32.179Z,92678.41
2022-11-01T13:35:42.911Z,92681.69
2022-11-01T13:38:24.640Z,92680.03
2022-11-01T13:41:03.965Z,92685.41
2022-11-01T13:43:39.340Z,92681.44
2022-11-01T13:46:31.444Z,92682.75
2022-11-01T13:49:40.042Z,92674.69
2022-11-01T13:52:18.643Z,92673.81
2022-11-01T13:54:57.318Z,92674.44
2022-11-01T13:57:30.105Z,92675.25
2022-11-01T14:00:07.645Z,92678.66
2022-11-01T14:02:56.542Z,92669.84
2022-11-01T14:05:37.016Z,92661.84
2022-11-01T14:08:15.345Z,92669.84
2022-11-01T14:10:49.984Z,92667.47
2022-11-01T14:13:47.006Z,92664.75
2022-11-01T14:16:20.698Z,92663.53
2022-11-01T14:19:19.208Z,92664.47
2022-11-01T14:21:53.320Z,92661.38
2022-11-01T14:24:34.941Z,92658.66
2022-11-01T14:27:32.684Z,92658.28
2022-11-01T14:30:35.154Z,92661.31
2022-11-01T14:33:14.184Z,92661.22
2022-11-01T14:35:53.788Z,92656.53
2022-11-01T14:38:31.160Z,92657.25
2022-11-01T14:41:05.160Z,92658.03
2022-11-01T14:43:42.689Z,92664.13
2022-11-01T14:46:18.109Z,92659.47
2022-11-01T14:48:56.818Z,92656.63
2022-11-01T14:51:34.433Z,92662.09
2022-11-01T14:54:13.559Z,92666.88
2022-11-01T14:56:49.902Z,92664.03
2022-11-01T14:59:24.733Z,92666.47
2022-11-01T15:02:02.662Z,92668.50
2022-11-01T15:04:40.063Z,92664.88
2022-11-01T15:07:20.980Z,92661.91
2022-11-01T15:09:56.921Z,92660.50
2022-11-01T15:12:31.991Z,92649.00
2022-11-01T15:15:05.320Z,92663.59
2022-11-01T15:17:38.608Z,92667.84
2022-11-01T15:20:14.061Z,92664.13
2022-11-01T15:22:48.060Z,92664.00
2022-11-01T15:25:22.389Z,92675.53
2022-11-01T15:27:56.681Z,92672.91
2022-11-01T15:30:30.532Z,92674.47
2022-11-01T15:33:23.325Z,92671.84
2022-11-01T15:35:58.730Z,92670.28
2022-11-01T15:38:35.394Z,92675.97
2022-11-01T15:41:25.055Z,92675.91
2022-11-01T15:43:59.263Z,92678.44
2022-11-01T15:46:32.933Z,92683.94
2022-11-01T15:49:09.265Z,92678.50
2022-11-01T15:51:47.741Z,92690.16
2022-11-01T15:54:33.613Z,92694.25
2022-11-01T15:57:14.920Z,92688.44
2022-11-01T15:59:54.916Z,92690.31
2022-11-01T16:02:31.552Z,92686.13
2022-11-01T16:05:05.251Z,92695.03
2022-11-01T16:07:38.162Z,92700.19
2022-11-01T16:10:18.663Z,92683.47
2022-11-01T16:12:52.128Z,92697.78
2022-11-01T16:15:27.353Z,92697.63
2022-11-01T16:18:01.853Z,92695.56
2022-11-01T16:20:38.047Z,92694.59
2022-11-01T16:23:11.810Z,92682.03
2022-11-01T16:25:44.829Z,92705.13
2022-11-01T16:28:30.164Z,92709.09
2022-11-01T16:31:03.575Z,92707.09
2022-11-01T16:33:43.961Z,92712.91
2022-11-01T16:36:34.850Z,92713.28
2022-11-01T16:39:25.592Z,92707.16
2022-11-01T16:41:59.402Z,92710.94
2022-11-01T16:44:31.724Z,92713.28
2022-11-01T16:47:04.131Z,92709.59
2022-11-01T16:49:36.533Z,92712.56
2022-11-01T16:52:10.848Z,92711.31
2022-11-01T16:54:43.192Z,92717.19
2022-11-01T16:57:22.099Z,92717.72
2022-11-01T16:59:55.013Z,92727.47
2022-11-01T17:02:29.448Z,92724.69
2022-11-01T17:05:07.644Z,92725.03
2022-11-01T17:07:40.051Z,92722.88
2022-11-01T17:10:16.346Z,92719.63
2022-11-01T17:12:49.378Z,92724.88
2022-11-01T17:15:21.777Z,92730.00
2022-11-01T17:17:54.207Z,92730.31
2022-11-01T17:20:27.707Z,92731.56
2022-11-01T17:23:00.290Z,92732.50
2022-11-01T17:25:33.044Z,92737.91
2022-11-01T17:28:06.355Z,92738.22
2022-11-01T17:30:39.223Z,92731.88
2022-11-01T17:33:11.739Z,92734.38
2022-11-01T17:35:44.337Z,92725.56
2022-11-01T17:38:19.518Z,92730.97
2022-11-01T17:40:54.146Z,92733.28
2022-11-01T17:43:27.160Z,92728.97
2022-11-01T17:45:59.802Z,92727.72
2022-11-01T17:48:32.153Z,92731.28
2022-11-01T17:51:04.757Z,92728.50
2022-11-01T17:53:38.744Z,92735.91
2022-11-01T17:56:11.099Z,92725.56
2022-11-01T17:58:49.424Z,92731.13
2022-11-01T18:01:24.635Z,92733.28
2022-11-01T18:03:57.137Z,92737.41
2022-11-01T18:06:29.586Z,92740.78
2022-11-01T18:09:04.789Z,92739.50
2022-11-01T18:11:39.628Z,92735.63
2022-11-01T18:14:16.565Z,92738.91
2022-11-01T18:16:50.498Z,92743.34
2022-11-01T18:19:38.875Z,92733.00
2022-11-01T18:22:20.514Z,92743.34
2022-11-01T18:24:58.795Z,92738.53
2022-11-01T18:27:33.749Z,92739.44
2022-11-01T18:30:14.147Z,92739.72
2022-11-01T18:32:53.924Z,92736.28
2022-11-01T18:35:32.294Z,92736.41
2022-11-01T18:38:14.124Z,92731.78
2022-11-01T18:40:55.447Z,92736.06
2022-11-01T18:43:30.684Z,92735.41
2022-11-01T18:46:24.379Z,92742.19
2022-11-01T18:49:00.550Z,92746.19
2022-11-01T18:51:34.206Z,92748.44
2022-11-01T18:54:22.976Z,92747.97
2022-11-01T18:56:57.291Z,92741.38
2022-11-01T18:59:33.357Z,92756.97
2022-11-01T19:02:13.984Z,92757.03
2022-11-01T19:04:48.044Z,92755.78
2022-11-01T19:07:22.187Z,92759.94
2022-11-01T19:09:56.275Z,92762.41
2022-11-01T19:12:32.549Z,92757.16
2022-11-01T19:15:18.691Z,92745.63
2022-11-01T19:17:57.135Z,92759.72
2022-11-01T19:20:31.624Z,92758.44
2022-11-01T19:23:11.175Z,92753.50
2022-11-01T19:25:43.534Z,92759.31
2022-11-01T19:28:24.622Z,92760.69
2022-11-01T19:31:06.630Z,92763.72
2022-11-01T19:33:42.370Z,92769.38
2022-11-01T19:36:18.897Z,92762.41
2022-11-01T19:38:52.677Z,92760.66
2022-11-01T19:41:29.764Z,92770.53
2022-11-01T19:44:11.719Z,92773.75
2022-11-01T19:46:44.031Z,92774.16
2022-11-01T19:49:24.401Z,92764.53
2022-11-01T19:52:20.776Z,92772.50
2022-11-01T19:54:53.917Z,92752.06
2022-11-01T19:57:29.952Z,92769.22
2022-11-01T20:00:17.476Z,92772.63
2022-11-01T20:02:52.993Z,92777.88
2022-11-01T20:05:29.540Z,92773.81
2022-11-01T20:08:13.816Z,92771.38
2022-11-01T20:10:46.211Z,92772.31
2022-11-01T20:13:18.556Z,92772.63
2022-11-01T20:15:51.223Z,92778.16
2022-11-01T20:18:23.620Z,92781.34
2022-11-01T20:20:57.038Z,92773.63
2022-11-01T20:23:29.378Z,92777.28
2022-11-01T20:26:03.157Z,92773.72
2022-11-01T20:28:35.452Z,92778.44
2022-11-01T20:31:07.754Z,92779.41
2022-11-01T20:33:40.252Z,92772.16
2022-11-01T20:36:13.578Z,92773.78
2022-11-01T20:38:46.034Z,92777.78
2022-11-01T20:41:18.689Z,92781.94
2022-11-01T20:43:50.988Z,92780.66
2022-11-01T20:46:24.677Z,92777.09
2022-11-01T20:48:57.008Z,92769.34
2022-11-01T20:51:30.000Z,92774.56
2022-11-01T20:54:02.302Z,92774.84
2022-11-01T20:56:34.670Z,92772.81
2022-11-01T20:59:06.982Z,92775.22
2022-11-01T21:01:39.465Z,92775.50
2022-11-01T21:04:12.513Z,92774.25
2022-11-01T21:06:46.228Z,92779.19
2022-11-01T21:09:29.849Z,92768.72
2022-11-01T21:12:02.270Z,92764.56
2022-11-01T21:14:37.205Z,92768.63
2022-11-01T21:17:17.073Z,92768.69
2022-11-01T21:19:52.821Z,92772.09
2022-11-01T21:22:25.941Z,92771.03
2022-11-01T21:24:59.567Z,92771.88
2022-11-01T21:27:33.298Z,92771.38
2022-11-01T21:30:17.348Z,92773.03
2022-11-01T21:32:51.075Z,92771.66
2022-11-01T21:35:37.729Z,92777.19
2022-11-01T21:38:32.408Z,92771.94
2022-11-01T21:41:25.577Z,92769.69
2022-11-01T21:44:11.416Z,92773.66
2022-11-01T21:46:47.153Z,92769.00
2022-11-01T21:49:28.229Z,92771.16
2022-11-01T21:52:02.282Z,92758.84
2022-11-01T21:54:36.980Z,92760.97
2022-11-01T21:57:11.050Z,92765.69
2022-11-01T21:59:43.722Z,92767.03
2022-11-01T22:02:16.236Z,92765.00
2022-11-01T22:04:48.811Z,92766.63
2022-11-01T22:07:21.451Z,92766.63
2022-11-01T22:09:54.448Z,92763.06
2022-11-01T22:12:26.828Z,92761.78
2022-11-01T22:14:59.172Z,92772.00
2022-11-01T22:17:31.476Z,92764.47
2022-11-01T22:20:04.705Z,92761.34
2022-11-01T22:22:37.053Z,92756.22
2022-11-01T22:25:10.557Z,92760.66
2022-11-01T22:27:42.921Z,92758.91
2022-11-01T22:30:15.498Z,92752.22
2022-11-01T22:32:47.834Z,92759.00
2022-11-01T22:35:21.404Z,92767.09
2022-11-01T22:37:54.069Z,92750.50
2022-11-01T22:40:27.118Z,92749.75
2022-11-01T22:42:59.741Z,92750.81
2022-11-01T22:45:33.783Z,92757.38
2022-11-01T22:48:14.108Z,92755.25
2022-11-01T22:50:46.447Z,92748.75
2022-11-01T22:53:20.762Z,92752.16
2022-11-01T22:55:54.776Z,92756.59
2022-11-01T22:58:34.766Z,92748.06
2022-11-01T23:01:16.903Z,92747.53
2022-11-01T23:03:53.565Z,92743.66
2022-11-01T23:06:31.318Z,92738.75
2022-11-01T23:09:13.089Z,92741.13
2022-11-01T23:12:09.710Z,92744.31
2022-11-01T23:14:44.996Z,92736.25
2022-11-01T23:17:23.390Z,92733.66
2022-11-01T23:19:58.474Z,92734.78
2022-11-01T23:22:34.339Z,92725.16
2022-11-01T23:25:08.925Z,92727.50
2022-11-01T23:27:43.940Z,92723.59
2022-11-01T23:30:16.809Z,92728.06
2022-11-01T23:32:49.106Z,92733.28
2022-11-01T23:35:22.061Z,92728.06
2022-11-01T23:37:57.894Z,92724.69
2022-11-01T23:40:33.124Z,92719.03
2022-11-01T23:43:20.546Z,92728.63
2022-11-01T23:45:53.642Z,92718.25
2022-11-01T23:48:26.027Z,92728.97
2022-11-01T23:50:58.490Z,92721.50
2022-11-01T23:53:35.038Z,92732.13
2022-11-01T23:56:08.776Z,92729.31
2022-11-01T23:58:42.033Z,92726.78
